Fukushima Airport
RJSF : now visible

Airfield :











YOU CAN JOIN US ON...

 
LOGIN :

Register | Disclaimer

   EN    FR    IT 

 









Legend :    VFR   Marginal VFR   IFR   Intensive IFR   Very Intensive IFR
Visi :
Ceiling :
>= 8 km
>= 3000ft
5 to 8 km
1000 to 3000 ft
1500m to 5 km
500 to 1000 ft
800 to 1500m
200 to 500 ft
< 800m
< 200 ft
Symbols :   Thunderstorms  Fog  Heavy snow  Heavy precipitations  Wind > 20 kt







- Airport Elevation : 1221 ft
- IATA code : FKS


RJSF - Fukushima

CURRENT METAR :
  • 260900Z 19007KT 9999 FEW030 SCT070 BKN/// 25/17 Q1013

EXPIRED METARs :
  • 260800Z 21009KT 180V240 9999 FEW030 27/17 Q1013
  • 260700Z 19010KT 9999 FEW030 SCT040 27/18 Q1013

TAF TAF RJSF
Valid from the 26 at 06:00 until the 27 at 12:00 UTC


260505Z 2606/2712 20008KT 9999 FEW020 SCT040
TEMPO 2618/2700 4000 BR FEW003 BKN005 BKN008
TEMPO 2706/2712 4000 -RA BR FEW005 BKN008 BKN015
RJJJ FIR / Asia



MET'MAP, your aeronautical weather chart ! - Copyright ORBIFLY December 2007 - Disclaimer

ORBIFLY MET'MAP TEAM :

Programming & Development : Alexandra Zaïnal
Concept & Development : Baudouin d'Aumeries
Co-Development & Prog : Marc-Olivier Méhu
Technical & hardware support : Manuel Goepfert

Contact : metmap@orbifly.com




SOURCES & CREDITS :

   NOAA       Earth
Advisory